createdAt,value
2018-07-24T00:01:00.817Z,16.50
2018-07-24T00:03:29.030Z,16.50
2018-07-24T00:05:57.248Z,16.50
2018-07-24T00:08:25.465Z,16.50
2018-07-24T00:10:53.676Z,16.50
2018-07-24T00:13:21.914Z,16.50
2018-07-24T00:15:50.133Z,16.40
2018-07-24T00:18:18.351Z,16.40
2018-07-24T00:20:46.530Z,16.40
2018-07-24T00:23:14.725Z,16.40
2018-07-24T00:25:42.928Z,16.30
2018-07-24T00:28:11.227Z,16.30
2018-07-24T00:30:39.516Z,16.30
2018-07-24T00:33:07.717Z,16.20
2018-07-24T00:35:35.916Z,16.20
2018-07-24T00:38:04.102Z,16.20
2018-07-24T00:40:32.297Z,16.20
2018-07-24T00:43:00.582Z,16.20
2018-07-24T00:45:28.789Z,16.10
2018-07-24T00:47:57.029Z,16.10
2018-07-24T00:50:25.240Z,16.10
2018-07-24T00:52:53.441Z,16.10
2018-07-24T00:55:21.681Z,16.10
2018-07-24T00:57:49.886Z,16.10
2018-07-24T01:00:18.096Z,16.10
2018-07-24T01:02:46.293Z,16.10
2018-07-24T01:05:14.505Z,16.10
2018-07-24T01:07:42.739Z,16.10
2018-07-24T01:10:11.409Z,16.10
2018-07-24T01:12:39.885Z,16.10
2018-07-24T01:15:08.373Z,16.10
2018-07-24T01:17:36.606Z,16.10
2018-07-24T01:20:05.420Z,16.10
2018-07-24T01:22:33.615Z,16.00
2018-07-24T01:25:01.809Z,16.00
2018-07-24T01:27:29.992Z,16.00
2018-07-24T01:29:58.186Z,16.00
2018-07-24T01:32:26.393Z,16.00
2018-07-24T01:34:54.603Z,15.90
2018-07-24T01:37:22.825Z,15.90
2018-07-24T01:39:51.052Z,15.90
2018-07-24T01:42:19.278Z,15.90
2018-07-24T01:44:47.511Z,15.90
2018-07-24T01:47:15.719Z,15.90
2018-07-24T01:49:43.926Z,15.90
2018-07-24T01:52:12.128Z,15.80
2018-07-24T01:54:40.329Z,15.90
2018-07-24T01:57:08.545Z,15.90
2018-07-24T01:59:36.761Z,15.90
2018-07-24T02:02:04.979Z,15.90
2018-07-24T02:04:33.278Z,15.90
2018-07-24T02:07:01.494Z,15.90
2018-07-24T02:09:29.726Z,15.90
2018-07-24T02:11:57.943Z,15.90
2018-07-24T02:14:26.158Z,15.90
2018-07-24T02:16:54.375Z,15.90
2018-07-24T02:19:22.609Z,15.80
2018-07-24T02:21:50.821Z,15.80
2018-07-24T02:26:47.005Z,15.90
2018-07-24T02:29:15.229Z,15.80
2018-07-24T02:31:43.556Z,15.80
2018-07-24T02:34:11.762Z,15.70
2018-07-24T02:36:39.990Z,15.70
2018-07-24T02:39:10.422Z,15.60
2018-07-24T02:41:38.638Z,15.60
2018-07-24T02:44:06.874Z,15.60
2018-07-24T02:46:35.093Z,15.60
2018-07-24T02:49:03.431Z,15.60
2018-07-24T02:51:32.007Z,15.50
2018-07-24T02:54:00.253Z,15.50
2018-07-24T02:56:29.400Z,15.50
2018-07-24T02:58:57.675Z,15.50
2018-07-24T03:01:26.171Z,15.50
2018-07-24T03:03:54.486Z,15.50
2018-07-24T03:06:22.828Z,15.50
2018-07-24T03:08:51.290Z,15.50
2018-07-24T03:11:19.505Z,15.50
2018-07-24T03:13:47.710Z,15.40
2018-07-24T03:16:15.939Z,15.40
2018-07-24T03:18:48.760Z,15.40
2018-07-24T03:21:16.975Z,15.40
2018-07-24T03:23:45.187Z,15.40
2018-07-24T03:26:13.396Z,15.30
2018-07-24T03:28:41.597Z,15.30
2018-07-24T03:31:09.795Z,15.30
2018-07-24T03:33:37.977Z,15.30
2018-07-24T03:36:06.232Z,15.30
2018-07-24T03:38:34.441Z,15.30
2018-07-24T03:41:02.632Z,15.30
2018-07-24T03:43:30.824Z,15.30
2018-07-24T03:48:27.036Z,15.30
2018-07-24T03:50:55.216Z,15.30
2018-07-24T03:53:23.433Z,15.30
2018-07-24T03:55:51.641Z,15.40
2018-07-24T03:58:19.841Z,15.40
2018-07-24T04:00:48.049Z,15.40
2018-07-24T04:03:16.269Z,15.40
2018-07-24T04:05:44.473Z,15.40
2018-07-24T04:08:12.690Z,15.40
2018-07-24T04:10:40.893Z,15.40
2018-07-24T04:13:09.164Z,15.40
2018-07-24T04:15:37.349Z,15.50
2018-07-24T04:18:05.552Z,15.50
2018-07-24T04:20:33.750Z,15.50
2018-07-24T04:23:02.018Z,15.60
2018-07-24T04:25:30.233Z,15.60
2018-07-24T04:27:58.492Z,15.70
2018-07-24T04:30:26.765Z,15.70
2018-07-24T04:32:55.005Z,15.80
2018-07-24T04:35:23.249Z,15.90
2018-07-24T04:37:51.454Z,15.90
2018-07-24T04:40:19.755Z,15.90
2018-07-24T04:42:47.925Z,16.00
2018-07-24T04:45:16.172Z,16.10
2018-07-24T04:47:44.639Z,16.10
2018-07-24T04:50:12.834Z,16.20
2018-07-24T04:52:41.032Z,16.20
2018-07-24T04:55:09.232Z,16.30
2018-07-24T04:57:37.421Z,16.40
2018-07-24T05:00:05.705Z,16.40
2018-07-24T05:02:33.976Z,16.50
2018-07-24T05:05:02.145Z,16.60
2018-07-24T05:07:30.355Z,16.60
2018-07-24T05:09:58.561Z,16.70
2018-07-24T05:12:26.761Z,16.80
2018-07-24T05:14:54.969Z,16.90
2018-07-24T05:17:23.177Z,16.90
2018-07-24T05:19:51.391Z,17.00
2018-07-24T05:22:19.633Z,17.10
2018-07-24T05:24:47.860Z,17.20
2018-07-24T05:27:16.458Z,17.30
2018-07-24T05:29:44.670Z,17.40
2018-07-24T05:32:13.229Z,17.50
2018-07-24T05:34:41.492Z,17.60
2018-07-24T05:37:09.719Z,18.00
2018-07-24T05:39:37.986Z,18.80
2018-07-24T05:42:06.473Z,20.20
2018-07-24T05:44:34.693Z,21.40
2018-07-24T05:47:02.926Z,22.40
2018-07-24T05:49:31.126Z,23.20
2018-07-24T05:51:59.328Z,23.60
2018-07-24T05:54:27.533Z,24.10
2018-07-24T05:56:55.729Z,24.10
2018-07-24T05:59:23.930Z,24.00
2018-07-24T06:01:52.177Z,23.80
2018-07-24T06:04:20.373Z,23.50
2018-07-24T06:06:48.574Z,23.10
2018-07-24T06:09:16.781Z,22.70
2018-07-24T06:11:44.970Z,22.30
2018-07-24T06:14:13.226Z,22.00
2018-07-24T06:16:41.479Z,21.80
2018-07-24T06:19:09.862Z,21.70
2018-07-24T06:21:38.149Z,21.70
2018-07-24T06:24:06.338Z,21.60
2018-07-24T06:26:34.542Z,21.40
2018-07-24T06:29:02.734Z,21.50
2018-07-24T06:31:30.941Z,21.50
2018-07-24T06:33:59.144Z,21.50
2018-07-24T06:36:27.358Z,21.50
2018-07-24T06:38:55.593Z,21.50
2018-07-24T06:41:23.794Z,21.50
2018-07-24T06:43:52.055Z,21.40
2018-07-24T06:46:20.735Z,21.40
2018-07-24T06:48:48.978Z,21.50
2018-07-24T06:51:17.258Z,21.50
2018-07-24T06:53:45.437Z,21.50
2018-07-24T06:56:13.723Z,21.70
2018-07-24T06:58:41.957Z,21.80
2018-07-24T07:01:10.186Z,21.90
2018-07-24T07:03:38.403Z,21.90
2018-07-24T07:06:06.622Z,22.00
2018-07-24T07:08:34.833Z,22.10
2018-07-24T07:11:03.043Z,22.10
2018-07-24T07:13:31.301Z,22.20
2018-07-24T07:15:59.480Z,22.30
2018-07-24T07:18:27.690Z,22.40
2018-07-24T07:20:55.901Z,22.60
2018-07-24T07:23:24.128Z,22.70
2018-07-24T07:25:52.337Z,22.90
2018-07-24T07:28:20.610Z,23.00
2018-07-24T07:30:48.802Z,23.10
2018-07-24T07:33:17.005Z,23.10
2018-07-24T07:35:45.241Z,23.20
2018-07-24T07:38:13.442Z,23.30
2018-07-24T07:40:41.680Z,23.40
2018-07-24T07:43:10.743Z,23.40
2018-07-24T07:45:38.949Z,23.50
2018-07-24T07:48:07.233Z,23.40
2018-07-24T07:50:35.440Z,23.60
2018-07-24T07:53:03.651Z,23.70
2018-07-24T07:55:31.871Z,23.70
2018-07-24T07:58:00.139Z,23.80
2018-07-24T08:00:28.363Z,23.90
2018-07-24T08:02:56.594Z,24.00
2018-07-24T08:05:24.826Z,24.10
2018-07-24T08:07:53.147Z,24.20
2018-07-24T08:10:21.349Z,24.30
2018-07-24T08:12:49.619Z,24.20
2018-07-24T08:15:17.825Z,24.10
2018-07-24T08:17:46.019Z,24.20
2018-07-24T08:20:14.299Z,24.20
2018-07-24T08:22:42.494Z,24.30
2018-07-24T08:25:10.792Z,24.40
2018-07-24T08:27:39.002Z,24.40
2018-07-24T08:30:07.231Z,24.60
2018-07-24T08:32:36.499Z,24.60
2018-07-24T08:35:04.726Z,24.70
2018-07-24T08:37:32.966Z,24.80
2018-07-24T08:40:01.194Z,25.00
2018-07-24T08:42:29.416Z,25.10
2018-07-24T08:44:57.621Z,25.10
2018-07-24T08:47:25.890Z,25.20
2018-07-24T08:49:54.102Z,25.10
2018-07-24T08:52:22.353Z,25.20
2018-07-24T08:54:50.986Z,25.20
2018-07-24T08:57:18.805Z,25.20
2018-07-24T08:59:47.050Z,25.30
2018-07-24T09:02:15.258Z,25.30
2018-07-24T09:04:43.457Z,25.30
2018-07-24T09:07:11.759Z,25.40
2018-07-24T09:12:08.009Z,25.50
2018-07-24T09:14:36.222Z,25.80
2018-07-24T09:17:04.453Z,25.80
2018-07-24T09:19:32.658Z,25.90
2018-07-24T09:22:00.855Z,26.10
2018-07-24T09:24:29.049Z,26.20
2018-07-24T09:26:57.316Z,26.10
2018-07-24T09:29:25.513Z,26.10
2018-07-24T09:31:54.130Z,26.20
2018-07-24T09:36:50.323Z,26.30
2018-07-24T11:01:16.706Z,26.50
2018-07-24T11:03:44.951Z,28.20
2018-07-24T11:06:13.140Z,28.30
2018-07-24T11:08:41.355Z,28.30
2018-07-24T11:11:09.556Z,28.20
2018-07-24T11:13:38.164Z,28.30
2018-07-24T11:16:06.395Z,28.20
2018-07-24T11:18:35.061Z,28.30
2018-07-24T11:21:03.289Z,28.40
2018-07-24T11:23:31.500Z,28.30
2018-07-24T11:25:59.754Z,28.40
2018-07-24T11:28:28.012Z,28.50
2018-07-24T11:30:56.253Z,28.60
2018-07-24T11:33:24.835Z,28.50
2018-07-24T11:35:53.169Z,28.10
2018-07-24T11:38:21.262Z,28.10
2018-07-24T11:40:49.521Z,28.00
2018-07-24T11:43:17.862Z,27.80
2018-07-24T11:45:46.107Z,27.80
2018-07-24T11:48:14.342Z,27.90
2018-07-24T11:50:42.567Z,28.00
2018-07-24T11:53:11.016Z,28.10
2018-07-24T11:55:39.278Z,28.20
2018-07-24T11:58:07.896Z,28.00
2018-07-24T12:00:36.116Z,28.10
2018-07-24T12:03:04.321Z,28.20
2018-07-24T12:05:32.546Z,28.20
2018-07-24T12:08:00.777Z,28.30
2018-07-24T12:10:28.967Z,28.50
2018-07-24T12:12:57.173Z,28.70
2018-07-24T12:15:27.585Z,28.70
2018-07-24T12:17:55.875Z,28.90
2018-07-24T12:20:24.589Z,28.90
2018-07-24T12:22:52.798Z,29.00
2018-07-24T12:25:21.737Z,29.20
2018-07-24T12:27:49.945Z,29.20
2018-07-24T12:30:18.923Z,29.20
2018-07-24T12:32:47.190Z,29.30
2018-07-24T12:35:15.453Z,29.40
2018-07-24T12:37:43.641Z,29.40
2018-07-24T12:40:11.883Z,29.50
2018-07-24T12:42:40.245Z,29.50
2018-07-24T12:45:08.485Z,29.30
2018-07-24T12:47:38.241Z,29.00
2018-07-24T12:50:06.949Z,28.60
2018-07-24T12:52:35.625Z,28.10
2018-07-24T12:55:03.822Z,28.00
2018-07-24T12:57:32.097Z,28.00
2018-07-24T13:00:00.315Z,28.20
2018-07-24T13:02:28.531Z,28.50
2018-07-24T13:04:56.733Z,28.50
2018-07-24T13:07:24.959Z,28.30
2018-07-24T13:09:53.270Z,28.00
2018-07-24T13:12:21.439Z,27.60
2018-07-24T13:14:49.637Z,27.60
2018-07-24T13:17:17.846Z,27.80
2018-07-24T13:19:46.062Z,28.10
2018-07-24T13:24:42.271Z,28.60
2018-07-24T13:27:10.483Z,28.70
2018-07-24T13:29:38.716Z,28.70
2018-07-24T13:32:07.073Z,28.90
2018-07-24T13:34:35.166Z,29.00
2018-07-24T13:37:03.393Z,29.10
2018-07-24T13:39:31.598Z,29.20
2018-07-24T13:41:59.830Z,29.20
2018-07-24T13:44:28.177Z,29.30
2018-07-24T13:46:56.385Z,29.10
2018-07-24T13:49:24.613Z,28.80
2018-07-24T13:51:52.846Z,28.40
2018-07-24T13:54:21.049Z,28.30
2018-07-24T13:56:49.256Z,28.40
2018-07-24T13:59:17.474Z,28.30
2018-07-24T14:01:45.689Z,28.40
2018-07-24T14:04:13.906Z,28.40
2018-07-24T14:06:42.116Z,28.40
2018-07-24T14:09:11.622Z,28.30
2018-07-24T14:11:40.297Z,28.30
2018-07-24T14:14:08.893Z,28.20
2018-07-24T14:16:37.102Z,28.30
2018-07-24T14:19:05.426Z,28.40
2018-07-24T14:21:33.708Z,28.40
2018-07-24T14:24:01.975Z,28.30
2018-07-24T14:26:30.237Z,28.40
2018-07-24T14:28:58.645Z,28.40
2018-07-24T14:31:27.136Z,28.30
2018-07-24T14:33:55.610Z,28.20
2018-07-24T14:36:23.877Z,28.30
2018-07-24T14:38:52.140Z,28.20
2018-07-24T14:41:20.382Z,28.20
2018-07-24T14:43:48.606Z,28.20
2018-07-24T14:46:16.871Z,28.10
2018-07-24T14:48:45.047Z,28.10
2018-07-24T14:51:13.240Z,28.00
2018-07-24T14:53:41.469Z,28.00
2018-07-24T14:56:09.689Z,27.90
2018-07-24T14:58:37.945Z,27.90
2018-07-24T15:01:06.332Z,28.00
2018-07-24T15:03:34.561Z,27.80
2018-07-24T15:06:02.749Z,27.90
2018-07-24T15:08:30.987Z,28.00
2018-07-24T15:10:59.206Z,27.90
2018-07-24T15:13:27.436Z,27.90
2018-07-24T15:15:55.727Z,27.80
2018-07-24T15:18:23.926Z,27.80
2018-07-24T15:20:52.143Z,27.70
2018-07-24T15:23:20.393Z,27.70
2018-07-24T15:25:48.593Z,27.70
2018-07-24T15:28:16.909Z,27.70
2018-07-24T15:30:45.263Z,27.70
2018-07-24T15:33:13.469Z,27.60
2018-07-24T15:35:41.674Z,27.50
2018-07-24T15:38:09.902Z,27.50
2018-07-24T15:40:38.127Z,27.50
2018-07-24T15:43:06.426Z,27.40
2018-07-24T15:45:34.715Z,27.40
2018-07-24T15:48:02.930Z,27.40
2018-07-24T15:50:31.153Z,27.30
2018-07-24T15:52:59.363Z,27.30
2018-07-24T15:55:27.593Z,27.30
2018-07-24T15:57:55.906Z,27.30
2018-07-24T16:00:24.058Z,27.30
2018-07-24T16:02:52.306Z,27.30
2018-07-24T16:05:20.521Z,27.20
2018-07-24T16:07:48.761Z,27.10
2018-07-24T16:10:17.085Z,27.10
2018-07-24T16:12:45.346Z,27.10
2018-07-24T16:15:13.568Z,27.10
2018-07-24T16:17:41.836Z,27.10
2018-07-24T16:20:10.065Z,27.20
2018-07-24T16:22:38.291Z,27.30
2018-07-24T16:25:06.701Z,27.30
2018-07-24T16:27:34.935Z,27.30
2018-07-24T16:30:03.218Z,27.30
2018-07-24T16:32:31.413Z,27.20
2018-07-24T16:34:59.625Z,27.20
2018-07-24T16:37:28.489Z,27.20
2018-07-24T16:39:56.701Z,27.10
2018-07-24T16:42:25.113Z,27.10
2018-07-24T16:44:53.326Z,27.00
2018-07-24T16:47:21.653Z,26.90
2018-07-24T16:49:49.777Z,26.80
2018-07-24T16:52:18.006Z,26.70
2018-07-24T16:57:14.293Z,26.60
2018-07-24T16:59:42.509Z,26.60
2018-07-24T17:02:10.822Z,26.50
2018-07-24T17:04:39.113Z,26.40
2018-07-24T17:07:07.343Z,26.40
2018-07-24T17:09:35.550Z,26.30
2018-07-24T17:12:04.046Z,26.30
2018-07-24T17:14:32.350Z,26.30
2018-07-24T17:17:00.650Z,26.30
2018-07-24T17:19:28.859Z,26.30
2018-07-24T17:21:57.122Z,26.30
2018-07-24T17:24:25.464Z,26.20
2018-07-24T17:26:53.673Z,26.10
2018-07-24T17:29:22.244Z,26.10
2018-07-24T17:31:50.526Z,26.00
2018-07-24T17:34:18.753Z,25.90
2018-07-24T17:36:46.933Z,25.80
2018-07-24T17:39:15.120Z,25.80
2018-07-24T17:41:43.366Z,25.80
2018-07-24T17:44:11.597Z,25.70
2018-07-24T17:46:39.820Z,25.80
2018-07-24T17:49:08.015Z,25.80
2018-07-24T17:51:36.197Z,25.70
2018-07-24T17:54:04.393Z,25.60
2018-07-24T17:56:32.634Z,25.60
2018-07-24T17:59:00.946Z,25.60
2018-07-24T18:01:29.089Z,25.50
2018-07-24T18:03:57.281Z,25.40
2018-07-24T18:06:25.513Z,25.30
2018-07-24T18:08:53.715Z,25.30
2018-07-24T18:11:21.913Z,25.20
2018-07-24T18:13:50.112Z,25.20
2018-07-24T18:18:46.323Z,25.10
2018-07-24T18:21:14.530Z,24.90
2018-07-24T18:23:42.716Z,24.90
2018-07-24T18:26:10.938Z,24.80
2018-07-24T18:28:39.145Z,24.70
2018-07-24T18:31:07.343Z,24.60
2018-07-24T18:33:35.567Z,24.60
2018-07-24T18:36:03.753Z,24.40
2018-07-24T18:38:31.958Z,24.30
2018-07-24T18:41:00.143Z,24.20
2018-07-24T18:43:28.361Z,24.00
2018-07-24T18:45:56.563Z,23.90
2018-07-24T18:48:24.754Z,23.80
2018-07-24T18:50:52.953Z,23.70
2018-07-24T18:53:21.198Z,23.60
2018-07-24T18:55:49.353Z,23.50
2018-07-24T18:58:17.549Z,23.40
2018-07-24T19:00:45.961Z,23.20
2018-07-24T19:03:14.158Z,23.10
2018-07-24T19:05:42.362Z,23.00
2018-07-24T19:08:10.573Z,22.90
2018-07-24T19:10:38.800Z,22.80
2018-07-24T19:13:07.017Z,22.70
2018-07-24T19:15:35.256Z,22.60
2018-07-24T19:18:03.464Z,22.40
2018-07-24T19:20:31.677Z,22.30
2018-07-24T19:22:59.881Z,22.20
2018-07-24T19:25:28.117Z,22.00
2018-07-24T19:27:56.412Z,21.90
2018-07-24T19:30:24.631Z,21.70
2018-07-24T19:32:52.830Z,21.50
2018-07-24T19:35:21.041Z,21.40
2018-07-24T19:37:49.233Z,21.30
2018-07-24T19:40:17.432Z,21.20
2018-07-24T19:42:45.651Z,21.10
2018-07-24T19:45:13.852Z,21.00
2018-07-24T19:47:42.037Z,20.90
2018-07-24T19:50:10.283Z,20.90
2018-07-24T19:52:38.445Z,20.80
2018-07-24T19:55:06.672Z,20.70
2018-07-24T19:57:35.784Z,20.60
2018-07-24T20:00:05.236Z,20.60
2018-07-24T20:02:33.485Z,20.60
2018-07-24T20:05:01.742Z,20.50
2018-07-24T20:07:29.980Z,20.40
2018-07-24T20:09:58.241Z,20.30
2018-07-24T20:12:26.448Z,20.30
2018-07-24T20:14:54.662Z,20.20
2018-07-24T20:17:22.868Z,20.10
2018-07-24T20:22:19.054Z,20.00
2018-07-24T20:24:47.254Z,19.90
2018-07-24T20:27:15.487Z,19.80
2018-07-24T20:29:44.174Z,19.70
2018-07-24T20:32:12.552Z,19.60
2018-07-24T20:34:40.799Z,19.60
2018-07-24T20:37:09.028Z,19.50
2018-07-24T20:39:37.214Z,19.40
2018-07-24T20:42:05.405Z,19.30
2018-07-24T20:44:33.618Z,19.30
2018-07-24T20:47:01.838Z,19.20
2018-07-24T20:49:30.056Z,19.10
2018-07-24T20:51:58.457Z,19.10
2018-07-24T20:54:26.657Z,19.00
2018-07-24T20:56:54.886Z,19.00
2018-07-24T20:59:23.133Z,18.90
2018-07-24T21:01:51.351Z,18.90
2018-07-24T21:04:19.576Z,18.90
2018-07-24T21:06:47.821Z,18.80
2018-07-24T21:09:16.035Z,18.70
2018-07-24T21:11:44.231Z,18.70
2018-07-24T21:14:12.421Z,18.60
2018-07-24T21:16:40.623Z,18.50
2018-07-24T21:19:08.846Z,18.50
2018-07-24T21:21:37.678Z,18.40
2018-07-24T21:24:05.873Z,18.30
2018-07-24T21:26:34.138Z,18.20
2018-07-24T21:29:02.337Z,18.20
2018-07-24T21:31:30.588Z,18.10
2018-07-24T21:33:58.797Z,18.10
2018-07-24T21:36:27.825Z,18.10
2018-07-24T21:38:56.025Z,18.00
2018-07-24T21:41:24.241Z,17.90
2018-07-24T21:43:52.462Z,17.90
2018-07-24T21:46:20.680Z,17.90
2018-07-24T21:48:48.940Z,17.80
2018-07-24T21:51:17.150Z,17.80
2018-07-24T21:53:45.302Z,17.80
2018-07-24T21:56:13.506Z,17.70
2018-07-24T21:58:41.721Z,17.70
2018-07-24T22:01:12.490Z,17.60
2018-07-24T22:03:40.859Z,17.70
2018-07-24T22:06:09.249Z,17.60
2018-07-24T22:08:37.875Z,17.50
2018-07-24T22:11:06.164Z,17.50
2018-07-24T22:13:34.874Z,17.50
2018-07-24T22:18:43.141Z,17.40
2018-07-24T22:21:11.350Z,17.40
2018-07-24T22:23:39.548Z,17.30
2018-07-24T22:26:07.781Z,17.30
2018-07-24T22:28:36.007Z,17.30
2018-07-24T22:31:04.345Z,17.20
2018-07-24T22:33:32.574Z,17.20
2018-07-24T22:36:00.791Z,17.10
2018-07-24T22:38:28.994Z,17.10
2018-07-24T22:40:57.213Z,17.00
2018-07-24T22:43:25.412Z,17.00
2018-07-24T22:45:53.633Z,17.00
2018-07-24T22:48:21.830Z,17.00
2018-07-24T22:50:50.055Z,17.00
2018-07-24T22:53:18.283Z,17.10
2018-07-24T22:55:46.614Z,17.10
2018-07-24T22:58:14.830Z,17.20
2018-07-24T23:00:43.174Z,17.30
2018-07-24T23:03:11.395Z,17.30
2018-07-24T23:05:39.621Z,17.30
2018-07-24T23:08:07.839Z,17.40
2018-07-24T23:10:36.053Z,17.40
2018-07-24T23:13:04.997Z,17.40
2018-07-24T23:15:33.258Z,17.40
2018-07-24T23:18:01.437Z,17.30
2018-07-24T23:20:29.662Z,17.20
2018-07-24T23:22:57.872Z,17.20
2018-07-24T23:25:26.082Z,17.20
2018-07-24T23:27:54.567Z,17.20
2018-07-24T23:30:22.815Z,17.10
2018-07-24T23:32:51.053Z,17.10
2018-07-24T23:35:19.269Z,17.00
2018-07-24T23:37:47.489Z,17.00
2018-07-24T23:40:15.770Z,16.90
2018-07-24T23:42:43.987Z,16.90
2018-07-24T23:45:12.199Z,16.90
2018-07-24T23:47:40.434Z,16.90
2018-07-24T23:50:08.641Z,17.00
2018-07-24T23:52:36.854Z,17.00
2018-07-24T23:55:05.058Z,17.00
2018-07-24T23:57:33.279Z,17.00
